Panorama Village, Texas
Current Conditions -  °F | °C
As of 6:45 AM on Monday 22 Dec 2014 (Local Time) from KCXO Reporting Station
Overcast Overcast  
Wind Chill: 59°   Ceiling: 500
Heat Index: 59°   Visibility: 7mi
Dew Point: 57°   Wind: 12mph
Humidity: 93%   Direction: 170°S
Pressure: 29.75"   Gusts: NA
Location:  30.3291°N, 95.5125°W
Report Text: KCXO 221245Z 17010KT 7SM BKN005 OVC019 15/14 A2975 RMK AO2 CIG 004V009 T01500139
Loading
Personal Weather Stations






























Interactive Weather Map New forecast layout! Learn more

10-Day Weather Forecast

Advertisements
Track Severe Weather on mobile